createdAt,value
2019-05-03T00:02:18.543Z,97283.72
2019-05-03T00:04:48.809Z,97280.94
2019-05-03T00:07:18.882Z,97288.16
2019-05-03T00:09:47.384Z,97291.11
2019-05-03T00:12:15.883Z,97285.70
2019-05-03T00:14:46.130Z,97287.62
2019-05-03T00:17:14.684Z,97286.77
2019-05-03T00:19:43.161Z,97290.31
2019-05-03T00:22:12.397Z,97288.88
2019-05-03T00:24:42.694Z,97283.22
2019-05-03T00:27:12.522Z,97280.64
2019-05-03T00:29:41.775Z,97275.80
2019-05-03T00:32:12.327Z,97272.84
2019-05-03T00:34:48.174Z,97274.17
2019-05-03T00:37:22.113Z,97273.05
2019-05-03T00:40:07.681Z,97275.74
2019-05-03T00:42:36.199Z,97274.16
2019-05-03T00:45:07.955Z,97271.66
2019-05-03T00:47:36.510Z,97276.48
2019-05-03T00:50:06.369Z,97273.73
2019-05-03T00:52:34.855Z,97278.91
2019-05-03T00:55:15.502Z,97277.72
2019-05-03T00:57:33.567Z,97276.33
2019-05-03T01:00:02.444Z,97276.12
2019-05-03T01:02:31.806Z,97281.68
2019-05-03T01:05:02.604Z,97283.88
2019-05-03T01:07:31.799Z,97278.69
2019-05-03T01:10:02.722Z,97278.02
2019-05-03T01:12:32.420Z,97274.59
2019-05-03T01:15:02.761Z,97276.20
2019-05-03T01:17:32.211Z,97277.72
2019-05-03T01:20:02.781Z,97273.22
2019-05-03T01:22:32.192Z,97273.64
2019-05-03T01:25:02.873Z,97270.14
2019-05-03T01:27:32.642Z,97264.16
2019-05-03T01:30:02.813Z,97262.55
2019-05-03T01:32:32.863Z,97261.57
2019-05-03T01:35:03.208Z,97258.17
2019-05-03T01:37:32.100Z,97256.78
2019-05-03T01:40:02.260Z,97259.98
2019-05-03T01:42:32.115Z,97261.50
2019-05-03T01:45:01.810Z,97261.05
2019-05-03T01:47:32.616Z,97252.38
2019-05-03T01:50:02.939Z,97253.69
2019-05-03T01:52:42.080Z,97251.71
2019-05-03T01:55:15.758Z,97251.16
2019-05-03T01:57:41.959Z,97247.07
2019-05-03T02:00:14.397Z,97250.83
2019-05-03T02:02:53.268Z,97248.09
2019-05-03T02:05:38.411Z,97255.63
2019-05-03T02:08:06.994Z,97253.73
2019-05-03T02:10:35.488Z,97254.16
2019-05-03T02:13:05.207Z,97246.48
2019-05-03T02:15:33.713Z,97250.58
2019-05-03T02:18:02.659Z,97242.39
2019-05-03T02:20:32.418Z,97243.58
2019-05-03T02:23:02.721Z,97239.50
2019-05-03T02:25:32.336Z,97248.09
2019-05-03T02:28:01.955Z,97250.20
2019-05-03T02:30:33.179Z,97242.02
2019-05-03T02:33:03.707Z,97242.30
2019-05-03T02:35:33.284Z,97238.64
2019-05-03T02:38:03.550Z,97247.44
2019-05-03T02:40:33.805Z,97244.97
2019-05-03T02:43:06.104Z,97248.02
2019-05-03T02:45:52.976Z,97244.30
2019-05-03T02:48:25.480Z,97243.98
2019-05-03T02:50:56.047Z,97248.45
2019-05-03T02:53:25.867Z,97249.19
2019-05-03T02:55:56.105Z,97246.72
2019-05-03T02:58:25.294Z,97244.66
2019-05-03T03:01:02.630Z,97239.77
2019-05-03T03:03:32.091Z,97245.67
2019-05-03T03:06:02.473Z,97242.02
2019-05-03T03:08:33.579Z,97229.55
2019-05-03T03:11:09.992Z,97226.67
2019-05-03T03:13:39.563Z,97217.34
2019-05-03T03:16:10.286Z,97218.01
2019-05-03T03:18:40.810Z,97215.39
2019-05-03T03:21:15.730Z,97219.67
2019-05-03T03:24:08.670Z,97219.64
2019-05-03T03:26:42.736Z,97224.02
2019-05-03T03:29:16.171Z,97224.67
2019-05-03T03:31:57.701Z,97219.66
2019-05-03T03:34:28.296Z,97219.95
2019-05-03T03:37:04.501Z,97229.05
2019-05-03T03:39:28.041Z,97227.97
2019-05-03T03:41:57.297Z,97227.80
2019-05-03T03:44:26.918Z,97226.28
2019-05-03T03:46:57.815Z,97227.66
2019-05-03T03:49:28.871Z,97225.58
2019-05-03T03:52:00.065Z,97226.22
2019-05-03T03:54:31.599Z,97231.17
2019-05-03T03:57:06.871Z,97231.41
2019-05-03T03:59:30.931Z,97231.47
2019-05-03T04:01:59.592Z,97237.08
2019-05-03T04:04:29.188Z,97236.34
2019-05-03T04:07:01.266Z,97246.36
2019-05-03T04:09:28.121Z,97242.85
2019-05-03T04:11:57.135Z,97249.83
2019-05-03T04:14:27.520Z,97255.39
2019-05-03T04:17:07.181Z,97252.56
2019-05-03T04:19:37.387Z,97259.83
2019-05-03T04:22:06.157Z,97261.28
2019-05-03T04:24:35.380Z,97262.43
2019-05-03T04:27:15.507Z,97268.11
2019-05-03T04:29:37.590Z,97271.81
2019-05-03T04:32:08.277Z,97278.05
2019-05-03T04:34:36.869Z,97281.94
2019-05-03T04:37:05.792Z,97290.13
2019-05-03T04:39:35.891Z,97288.98
2019-05-03T04:42:06.769Z,97291.28
2019-05-03T04:44:36.082Z,97293.11
2019-05-03T04:47:06.824Z,97291.81
2019-05-03T04:49:36.297Z,97288.91
2019-05-03T04:52:05.795Z,97293.13
2019-05-03T04:54:45.326Z,97290.20
2019-05-03T04:57:17.615Z,97296.88
2019-05-03T04:59:45.162Z,97297.22
2019-05-03T05:02:15.956Z,97297.78
2019-05-03T05:04:46.327Z,97304.05
2019-05-03T05:07:15.498Z,97300.84
2019-05-03T05:09:45.619Z,97309.41
2019-05-03T05:12:16.126Z,97311.98
2019-05-03T05:14:45.729Z,97308.34
2019-05-03T05:17:16.546Z,97311.84
2019-05-03T05:19:46.909Z,97307.76
2019-05-03T05:22:25.710Z,97313.64
2019-05-03T05:24:55.202Z,97317.50
2019-05-03T05:27:25.749Z,97317.45
2019-05-03T05:29:55.399Z,97320.16
2019-05-03T05:32:24.782Z,97322.72
2019-05-03T05:34:54.959Z,97318.22
2019-05-03T05:37:25.026Z,97323.95
2019-05-03T05:39:55.088Z,97325.33
2019-05-03T05:42:25.099Z,97326.55
2019-05-03T05:44:55.565Z,97333.21
2019-05-03T05:47:34.507Z,97335.94
2019-05-03T05:50:05.658Z,97346.94
2019-05-03T05:52:34.687Z,97358.97
2019-05-03T05:55:14.943Z,97346.01
2019-05-03T05:57:45.144Z,97358.44
2019-05-03T06:00:18.262Z,97348.55
2019-05-03T06:02:46.753Z,97346.91
2019-05-03T06:05:15.392Z,97357.86
2019-05-03T06:07:48.225Z,97358.09
2019-05-03T06:10:18.482Z,97353.02
2019-05-03T06:12:54.606Z,97351.63
2019-05-03T06:15:40.906Z,97359.22
2019-05-03T06:18:14.654Z,97366.14
2019-05-03T06:20:47.575Z,97358.94
2019-05-03T06:23:17.715Z,97353.08
2019-05-03T06:25:46.194Z,97353.57
2019-05-03T06:28:20.665Z,97364.23
2019-05-03T06:31:00.634Z,97357.86
2019-05-03T06:33:29.125Z,97362.73
2019-05-03T06:35:57.640Z,97361.64
2019-05-03T06:38:26.129Z,97363.40
2019-05-03T06:40:54.627Z,97352.08
2019-05-03T06:43:24.450Z,97352.08
2019-05-03T06:45:54.853Z,97357.82
2019-05-03T06:48:28.205Z,97361.47
2019-05-03T06:50:55.688Z,97361.12
2019-05-03T06:53:25.433Z,97356.63
2019-05-03T06:55:55.430Z,97361.53
2019-05-03T06:58:32.885Z,97359.06
2019-05-03T07:01:07.894Z,97366.81
2019-05-03T07:03:40.747Z,97364.78
2019-05-03T07:06:37.350Z,97376.73
2019-05-03T07:09:05.333Z,97372.80
2019-05-03T07:11:34.845Z,97368.84
2019-05-03T07:14:05.239Z,97375.88
2019-05-03T07:16:35.344Z,97377.91
2019-05-03T07:19:04.435Z,97380.95
2019-05-03T07:21:35.277Z,97378.56
2019-05-03T07:24:05.298Z,97383.31
2019-05-03T07:26:34.370Z,97384.63
2019-05-03T07:29:04.825Z,97383.06
2019-05-03T07:31:35.255Z,97393.89
2019-05-03T07:34:05.203Z,97386.16
2019-05-03T07:36:35.575Z,97388.59
2019-05-03T07:39:07.374Z,97382.56
2019-05-03T07:41:35.711Z,97391.50
2019-05-03T07:44:05.411Z,97389.63
2019-05-03T07:46:34.899Z,97396.37
2019-05-03T07:49:05.030Z,97397.88
2019-05-03T07:51:34.855Z,97395.89
2019-05-03T07:54:04.733Z,97392.18
2019-05-03T07:56:37.423Z,97397.55
2019-05-03T07:59:07.310Z,97391.87
2019-05-03T08:01:37.598Z,97398.28
2019-05-03T08:04:06.424Z,97401.34
2019-05-03T08:06:34.975Z,97405.88
2019-05-03T08:09:05.885Z,97408.95
2019-05-03T08:11:35.216Z,97405.64
2019-05-03T08:14:05.812Z,97400.81
2019-05-03T08:16:35.279Z,97404.59
2019-05-03T08:19:05.362Z,97398.38
2019-05-03T08:21:37.854Z,97410.42
2019-05-03T08:24:05.199Z,97410.11
2019-05-03T08:26:35.025Z,97407.41
2019-05-03T08:29:15.650Z,97404.65
2019-05-03T08:31:45.432Z,97402.23
2019-05-03T08:34:18.895Z,97403.34
2019-05-03T08:37:01.381Z,97400.58
2019-05-03T08:39:29.867Z,97407.72
2019-05-03T08:42:00.084Z,97398.55
2019-05-03T08:44:28.907Z,97399.22
2019-05-03T08:46:58.105Z,97391.44
2019-05-03T08:49:26.932Z,97401.45
2019-05-03T08:51:55.482Z,97411.06
2019-05-03T08:54:25.557Z,97408.67
2019-05-03T08:56:55.750Z,97406.40
2019-05-03T08:59:29.874Z,97403.68
2019-05-03T09:01:55.065Z,97406.77
2019-05-03T09:04:36.012Z,97408.74
2019-05-03T09:06:55.086Z,97409.34
2019-05-03T09:09:25.644Z,97405.60
2019-05-03T09:11:55.678Z,97406.47
2019-05-03T09:14:24.562Z,97407.67
2019-05-03T09:16:55.547Z,97403.48
2019-05-03T09:19:25.278Z,97410.45
2019-05-03T09:21:54.862Z,97413.48
2019-05-03T09:24:24.581Z,97415.41
2019-05-03T09:26:55.400Z,97425.83
2019-05-03T09:29:25.410Z,97421.25
2019-05-03T09:31:55.438Z,97426.59
2019-05-03T09:34:25.703Z,97430.56
2019-05-03T09:36:55.336Z,97433.65
2019-05-03T09:39:24.514Z,97441.21
2019-05-03T09:41:55.331Z,97449.48
2019-05-03T09:44:24.474Z,97443.45
2019-05-03T09:46:54.917Z,97463.19
2019-05-03T09:49:25.326Z,97460.05
2019-05-03T09:51:54.804Z,97471.07
2019-05-03T09:54:25.598Z,97469.16
2019-05-03T09:56:58.519Z,97472.30
2019-05-03T09:59:28.669Z,97475.91
2019-05-03T10:01:58.651Z,97486.61
2019-05-03T10:04:27.254Z,97487.59
2019-05-03T10:06:55.809Z,97499.00
2019-05-03T10:09:26.452Z,97496.73
2019-05-03T10:11:55.328Z,97505.95
2019-05-03T10:14:24.054Z,97513.41
2019-05-03T10:17:12.518Z,97516.48
2019-05-03T10:19:41.046Z,97516.29
2019-05-03T10:22:09.972Z,97529.05
2019-05-03T10:24:38.502Z,97539.98
2019-05-03T10:27:06.989Z,97531.09
2019-05-03T10:29:35.583Z,97539.73
2019-05-03T10:32:18.764Z,97542.70
2019-05-03T10:34:57.882Z,97537.22
2019-05-03T10:37:31.199Z,97549.42
2019-05-03T10:40:07.460Z,97545.97
2019-05-03T10:42:35.286Z,97552.80
2019-05-03T10:45:06.269Z,97561.31
2019-05-03T10:47:35.070Z,97558.29
2019-05-03T10:50:05.148Z,97555.81
2019-05-03T10:52:35.308Z,97559.34
2019-05-03T10:55:05.355Z,97558.12
2019-05-03T10:57:37.308Z,97545.97
2019-05-03T11:00:39.399Z,97550.38
2019-05-03T11:02:42.826Z,97553.20
2019-05-03T11:05:11.446Z,97556.22
2019-05-03T11:07:39.945Z,97553.95
2019-05-03T11:10:08.899Z,97554.63
2019-05-03T11:12:37.518Z,97563.03
2019-05-03T11:15:07.646Z,97553.94
2019-05-03T11:17:37.140Z,97558.30
2019-05-03T11:20:06.081Z,97556.97
2019-05-03T11:22:35.026Z,97549.96
2019-05-03T11:25:05.155Z,97550.92
2019-05-03T11:27:35.462Z,97558.32
2019-05-03T11:30:09.180Z,97557.82
2019-05-03T11:32:50.085Z,97568.94
2019-05-03T11:35:20.886Z,97565.20
2019-05-03T11:38:00.118Z,97567.27
2019-05-03T11:40:28.635Z,97570.20
2019-05-03T11:42:58.761Z,97569.02
2019-05-03T11:45:27.278Z,97573.50
2019-05-03T11:47:55.833Z,97571.39
2019-05-03T11:50:25.306Z,97574.02
2019-05-03T11:52:55.395Z,97575.02
2019-05-03T11:55:26.606Z,97572.26
2019-05-03T11:57:56.551Z,97570.05
2019-05-03T12:00:26.829Z,97569.91
2019-05-03T12:02:59.511Z,97570.86
2019-05-03T12:05:29.498Z,97585.50
2019-05-03T12:07:58.009Z,97591.39
2019-05-03T12:10:45.735Z,97595.06
2019-05-03T12:13:10.787Z,97601.06
2019-05-03T12:15:39.309Z,97607.51
2019-05-03T12:18:10.152Z,97606.77
2019-05-03T12:20:40.331Z,97607.73
2019-05-03T12:23:10.191Z,97610.94
2019-05-03T12:25:42.539Z,97606.46
2019-05-03T12:28:12.179Z,97592.75
2019-05-03T12:30:41.153Z,97587.92
2019-05-03T12:33:09.979Z,97595.77
2019-05-03T12:35:40.613Z,97589.66
2019-05-03T12:38:09.170Z,97589.10
2019-05-03T12:40:39.186Z,97592.08
2019-05-03T12:43:07.854Z,97586.29
2019-05-03T12:45:36.366Z,97583.63
2019-05-03T12:48:05.417Z,97586.53
2019-05-03T12:50:35.025Z,97583.09
2019-05-03T12:53:04.826Z,97595.08
2019-05-03T12:55:35.556Z,97584.94
2019-05-03T12:58:06.305Z,97586.77
2019-05-03T13:00:39.805Z,97594.85
2019-05-03T13:03:15.072Z,97590.69
2019-05-03T13:05:44.899Z,97591.13
2019-05-03T13:08:35.038Z,97596.51
2019-05-03T13:11:05.224Z,97589.30
2019-05-03T13:13:35.799Z,97590.68
2019-05-03T13:16:06.019Z,97586.98
2019-05-03T13:18:35.284Z,97597.36
2019-05-03T13:21:05.970Z,97588.92
2019-05-03T13:23:35.563Z,97577.77
2019-05-03T13:26:05.940Z,97591.34
2019-05-03T13:28:35.049Z,97594.83
2019-05-03T13:31:05.761Z,97590.47
2019-05-03T13:33:34.840Z,97588.93
2019-05-03T13:36:03.714Z,97586.89
2019-05-03T13:38:32.274Z,97587.22
2019-05-03T13:41:00.773Z,97575.63
2019-05-03T13:43:29.294Z,97588.26
2019-05-03T13:45:57.855Z,97579.84
2019-05-03T13:48:26.638Z,97578.93
2019-05-03T13:50:55.326Z,97573.75
2019-05-03T13:53:25.401Z,97581.56
2019-05-03T13:55:55.257Z,97573.26
2019-05-03T13:58:26.223Z,97579.47
2019-05-03T14:00:54.901Z,97579.35
2019-05-03T14:03:23.713Z,97567.36
2019-05-03T14:05:52.291Z,97573.67
2019-05-03T14:08:20.773Z,97572.53
2019-05-03T14:10:49.287Z,97568.34
2019-05-03T14:13:17.783Z,97569.91
2019-05-03T14:15:46.449Z,97574.08
2019-05-03T14:18:15.579Z,97575.98
2019-05-03T14:20:45.874Z,97574.55
2019-05-03T14:23:14.911Z,97573.97
2019-05-03T14:25:44.671Z,97576.13
2019-05-03T14:28:14.567Z,97567.03
2019-05-03T14:30:45.434Z,97568.06
2019-05-03T14:33:14.072Z,97570.84
2019-05-03T14:35:42.580Z,97572.53
2019-05-03T14:38:11.096Z,97575.91
2019-05-03T14:40:39.604Z,97571.59
2019-05-03T14:43:08.174Z,97575.02
2019-05-03T14:45:36.770Z,97579.16
2019-05-03T14:48:06.153Z,97576.19
2019-05-03T14:50:35.215Z,97578.64
2019-05-03T14:53:05.604Z,97582.95
2019-05-03T14:55:41.371Z,97577.94
2019-05-03T14:58:17.548Z,97581.58
2019-05-03T15:00:47.968Z,97583.31
2019-05-03T15:03:24.657Z,97581.25
2019-05-03T15:05:55.123Z,97578.91
2019-05-03T15:08:25.516Z,97581.17
2019-05-03T15:10:54.683Z,97578.25
2019-05-03T15:13:25.136Z,97576.38
2019-05-03T15:15:54.751Z,97576.56
2019-05-03T15:18:25.388Z,97575.45
2019-05-03T15:20:54.978Z,97582.06
2019-05-03T15:23:25.404Z,97579.67
2019-05-03T15:25:54.645Z,97578.73
2019-05-03T15:28:25.065Z,97583.52
2019-05-03T15:30:55.379Z,97585.29
2019-05-03T15:33:23.742Z,97587.19
2019-05-03T15:35:52.250Z,97583.81
2019-05-03T15:38:20.745Z,97588.29
2019-05-03T15:40:49.340Z,97593.83
2019-05-03T15:43:19.476Z,97594.66
2019-05-03T15:45:54.406Z,97594.80
2019-05-03T15:48:24.628Z,97590.79
2019-05-03T15:50:55.180Z,97596.76
2019-05-03T15:53:24.698Z,97595.84
2019-05-03T15:55:55.061Z,97592.89
2019-05-03T15:58:24.814Z,97581.39
2019-05-03T16:00:55.397Z,97581.39
2019-05-03T16:03:25.246Z,97594.23
2019-05-03T16:05:55.651Z,97592.89
2019-05-03T16:08:24.839Z,97593.36
2019-05-03T16:10:54.907Z,97585.96
2019-05-03T16:13:25.261Z,97592.70
2019-05-03T16:15:55.277Z,97596.89
2019-05-03T16:18:24.548Z,97591.83
2019-05-03T16:20:54.593Z,97591.64
2019-05-03T16:23:25.039Z,97591.64
2019-05-03T16:25:54.392Z,97605.78
2019-05-03T16:28:33.735Z,97605.80
2019-05-03T16:31:05.121Z,97601.63
2019-05-03T16:33:34.961Z,97609.33
2019-05-03T16:36:05.375Z,97612.94
2019-05-03T16:38:35.436Z,97612.66
2019-05-03T16:41:05.197Z,97604.56
2019-05-03T16:43:34.800Z,97604.44
2019-05-03T16:46:05.496Z,97607.37
2019-05-03T16:48:35.346Z,97603.51
2019-05-03T16:51:05.042Z,97603.43
2019-05-03T16:53:35.038Z,97598.13
2019-05-03T16:56:03.715Z,97600.57
2019-05-03T16:58:32.186Z,97609.45
2019-05-03T17:01:00.746Z,97604.38
2019-05-03T17:03:38.689Z,97604.49
2019-05-03T17:06:08.258Z,97607.66
2019-05-03T17:08:56.794Z,97605.80
2019-05-03T17:11:25.956Z,97607.41
2019-05-03T17:13:55.392Z,97616.23
2019-05-03T17:16:24.944Z,97625.26
2019-05-03T17:18:55.178Z,97619.66
2019-05-03T17:21:25.469Z,97615.96
2019-05-03T17:23:54.294Z,97620.02
2019-05-03T17:26:24.867Z,97618.95
2019-05-03T17:28:55.227Z,97616.09
2019-05-03T17:31:24.395Z,97616.81
2019-05-03T17:33:56.187Z,97618.11
2019-05-03T17:36:24.921Z,97616.20
2019-05-03T17:38:55.265Z,97623.62
2019-05-03T17:41:25.982Z,97622.95
2019-05-03T17:43:58.567Z,97633.25
2019-05-03T17:46:27.109Z,97637.53
2019-05-03T17:48:55.637Z,97641.59
2019-05-03T17:51:40.853Z,97636.59
2019-05-03T17:54:11.024Z,97648.89
2019-05-03T17:56:44.489Z,97649.70
2019-05-03T17:59:15.217Z,97652.70
2019-05-03T18:02:04.192Z,97655.23
2019-05-03T18:04:45.955Z,97654.10
2019-05-03T18:07:16.343Z,97647.50
2019-05-03T18:09:46.467Z,97648.59
2019-05-03T18:12:15.151Z,97646.20
2019-05-03T18:14:44.994Z,97658.91
2019-05-03T18:17:14.792Z,97653.10
2019-05-03T18:19:44.846Z,97653.92
2019-05-03T18:22:15.278Z,97663.78
2019-05-03T18:24:45.507Z,97662.81
2019-05-03T18:27:15.010Z,97675.11
2019-05-03T18:29:44.941Z,97677.10
2019-05-03T18:32:14.698Z,97679.17
2019-05-03T18:34:45.196Z,97676.13
2019-05-03T18:37:15.257Z,97672.87
2019-05-03T18:39:45.265Z,97676.30
2019-05-03T18:42:15.500Z,97679.31
2019-05-03T18:44:45.627Z,97686.27
2019-05-03T18:47:15.906Z,97688.41
2019-05-03T18:49:44.824Z,97685.14
2019-05-03T18:52:14.918Z,97675.35
2019-05-03T18:54:44.489Z,97686.78
2019-05-03T18:57:13.229Z,97682.84
2019-05-03T18:59:41.721Z,97692.28
2019-05-03T19:02:10.346Z,97680.94
2019-05-03T19:04:45.201Z,97697.60
2019-05-03T19:07:21.851Z,97699.11
2019-05-03T19:09:51.997Z,97702.58
2019-05-03T19:12:35.679Z,97705.70
2019-05-03T19:15:08.584Z,97705.25
2019-05-03T19:17:41.422Z,97689.55
2019-05-03T19:20:11.723Z,97703.05
2019-05-03T19:22:40.516Z,97700.57
2019-05-03T19:25:09.265Z,97701.27
2019-05-03T19:27:39.139Z,97706.58
2019-05-03T19:30:08.515Z,97711.59
2019-05-03T19:32:37.015Z,97710.08
2019-05-03T19:35:08.143Z,97700.39
2019-05-03T19:37:36.643Z,97692.92
2019-05-03T19:40:07.082Z,97707.67
2019-05-03T19:42:35.715Z,97717.83
2019-05-03T19:45:05.351Z,97711.80
2019-05-03T19:47:35.355Z,97706.55
2019-05-03T19:50:06.499Z,97712.16
2019-05-03T19:52:54.564Z,97711.02
2019-05-03T19:55:23.121Z,97711.36
2019-05-03T19:57:51.617Z,97709.21
2019-05-03T20:00:20.418Z,97707.91
2019-05-03T20:02:50.590Z,97712.48
2019-05-03T20:05:29.532Z,97708.71
2019-05-03T20:08:00.257Z,97702.66
2019-05-03T20:10:29.824Z,97701.86
2019-05-03T20:12:59.858Z,97692.34
2019-05-03T20:15:28.355Z,97689.34
2019-05-03T20:18:00.182Z,97696.14
2019-05-03T20:20:27.083Z,97688.89
2019-05-03T20:22:55.681Z,97684.39
2019-05-03T20:25:24.453Z,97684.28
2019-05-03T20:27:52.994Z,97681.28
2019-05-03T20:30:21.591Z,97683.36
2019-05-03T20:32:50.210Z,97685.42
2019-05-03T20:35:19.585Z,97683.58
2019-05-03T20:37:48.276Z,97685.78
2019-05-03T20:40:17.474Z,97677.59
2019-05-03T20:42:47.615Z,97686.83
2019-05-03T20:45:18.220Z,97681.50
2019-05-03T20:47:54.814Z,97684.97
2019-05-03T20:50:24.779Z,97683.35
2019-05-03T20:52:54.960Z,97678.74
2019-05-03T20:55:25.507Z,97682.31
2019-05-03T20:57:54.937Z,97679.89
2019-05-03T21:00:25.738Z,97686.81
2019-05-03T21:02:57.160Z,97687.00
2019-05-03T21:05:30.686Z,97684.70
2019-05-03T21:07:55.142Z,97687.69
2019-05-03T21:10:23.609Z,97679.03
2019-05-03T21:12:54.280Z,97676.99
2019-05-03T21:15:30.326Z,97681.34
2019-05-03T21:18:12.356Z,97684.84
2019-05-03T21:20:45.257Z,97686.91
2019-05-03T21:23:21.713Z,97677.88
2019-05-03T21:26:12.531Z,97679.56
2019-05-03T21:28:34.521Z,97679.31
2019-05-03T21:31:05.413Z,97676.49
2019-05-03T21:33:35.356Z,97685.73
2019-05-03T21:36:04.648Z,97683.86
2019-05-03T21:38:35.321Z,97684.83
2019-05-03T21:41:05.151Z,97683.45
2019-05-03T21:43:34.840Z,97683.69
2019-05-03T21:46:11.382Z,97681.14
2019-05-03T21:48:59.615Z,97679.38
2019-05-03T21:51:28.134Z,97686.00
2019-05-03T21:53:56.617Z,97692.04
2019-05-03T21:56:25.150Z,97689.23
2019-05-03T21:58:55.335Z,97694.56
2019-05-03T22:01:25.961Z,97696.12
2019-05-03T22:03:54.405Z,97699.10
2019-05-03T22:06:24.636Z,97698.64
2019-05-03T22:08:55.282Z,97705.66
2019-05-03T22:11:25.212Z,97704.97
2019-05-03T22:13:57.061Z,97702.48
2019-05-03T22:16:30.371Z,97701.55
2019-05-03T22:18:58.892Z,97698.30
2019-05-03T22:21:47.048Z,97702.77
2019-05-03T22:24:17.717Z,97702.72
2019-05-03T22:27:01.141Z,97697.01
2019-05-03T22:29:35.581Z,97694.82
2019-05-03T22:32:05.429Z,97687.92
2019-05-03T22:34:34.912Z,97685.73
2019-05-03T22:37:03.650Z,97686.80
2019-05-03T22:39:32.141Z,97679.70
2019-05-03T22:42:02.013Z,97685.34
2019-05-03T22:44:30.547Z,97677.42
2019-05-03T22:46:59.041Z,97687.75
2019-05-03T22:49:27.565Z,97677.14
2019-05-03T22:51:56.124Z,97680.91
2019-05-03T22:54:24.820Z,97683.46
2019-05-03T22:56:55.480Z,97683.00
2019-05-03T22:59:25.218Z,97684.22
2019-05-03T23:01:54.629Z,97695.54
2019-05-03T23:04:25.283Z,97694.60
2019-05-03T23:06:55.593Z,97693.12
2019-05-03T23:09:24.882Z,97690.47
2019-05-03T23:11:55.245Z,97689.76
2019-05-03T23:14:25.441Z,97685.98
2019-05-03T23:16:54.287Z,97675.17
2019-05-03T23:19:22.753Z,97676.09
2019-05-03T23:21:54.460Z,97672.72
2019-05-03T23:24:24.694Z,97672.62
2019-05-03T23:26:53.388Z,97666.11
2019-05-03T23:29:21.876Z,97657.23
2019-05-03T23:31:50.375Z,97657.52
2019-05-03T23:34:18.903Z,97654.91
2019-05-03T23:36:47.420Z,97661.24
2019-05-03T23:39:15.930Z,97660.34
2019-05-03T23:41:44.405Z,97657.45
2019-05-03T23:44:15.041Z,97654.97
2019-05-03T23:46:45.488Z,97652.98
2019-05-03T23:49:24.908Z,97656.20
2019-05-03T23:51:55.063Z,97650.67
2019-05-03T23:54:24.669Z,97644.10
2019-05-03T23:56:54.797Z,97646.52
2019-05-03T23:59:23.415Z,97645.07
